Back to Top

Language: 

My Weather Underground Personal Weather Station Historical Data with Graphs...

Delerius Weather Station Historical Data
Daily Summary for October 16, 2017 Units:  Metric    English   Both
« Previous Day
Next Day »
Daily Weekly Monthly Yearly Custom
  High: Low: Average:
Temperature: 19.9 °C 13.3 °C 15.6 °C
Dew Point: 16.1 °C 7.2 °C 11.8 °C
Humidity: 96 % 52 % 80 %
Wind Speed: 45.1 km/h 0 km/h 17.1 km/h
Wind Gust: 78.9 km/h - -
Wind:- - South
Pressure: 1014.8 hPa 1005.6 hPa -
Precipitation: 0 mm    
Historical Graphs
 
 
Tabular Data for October 16, 2017
Time Temperature Dew Point Pressure Wind Wind Speed Wind Gust Humidity Rainfall Rate (Hourly) solar Conditions
00:03 14.9 °C 12.2 °C 1014.4 hPa SSE 4.8 km/h 11.3 km/h 84 % 0 mm 0 W/m2
00:08 14.9 °C 12.2 °C 1014.4 hPa SSE 4.8 km/h 12.9 km/h 84 % 0 mm 0 W/m2
00:13 14.8 °C 12.1 °C 1014.4 hPa South 4.8 km/h 12.9 km/h 84 % 0 mm 0 W/m2
00:18 14.8 °C 12.3 °C 1014.8 hPa South 4.8 km/h 12.9 km/h 85 % 0 mm 0 W/m2
00:23 14.8 °C 12.3 °C 1014.8 hPa South 6.4 km/h 12.9 km/h 85 % 0 mm 0 W/m2
00:28 14.8 °C 12.3 °C 1014.4 hPa South 6.4 km/h 9.7 km/h 85 % 0 mm 0 W/m2
00:33 14.8 °C 12.3 °C 1014.8 hPa South 4.8 km/h 8 km/h 85 % 0 mm 0 W/m2
00:38 14.7 °C 12.2 °C 1014.4 hPa SSE 1.6 km/h 8 km/h 85 % 0 mm 0 W/m2
00:43 14.7 °C 12.2 °C 1014.4 hPa Calm   4.8 km/h 85 % 0 mm 0 W/m2
00:48 14.7 °C 12.2 °C 1014.4 hPa Calm   4.8 km/h 85 % 0 mm 0 W/m2
00:53 14.7 °C 12.2 °C 1014.4 hPa SSE 1.6 km/h 6.4 km/h 85 % 0 mm 0 W/m2
00:58 14.7 °C 12.4 °C 1014.4 hPa SSE 1.6 km/h 6.4 km/h 86 % 0 mm 0 W/m2
01:03 14.6 °C 12.3 °C 1014.4 hPa Calm   3.2 km/h 86 % 0 mm 0 W/m2
01:08 14.6 °C 12.3 °C 1014.4 hPa Calm   6.4 km/h 86 % 0 mm 0 W/m2
01:13 14.6 °C 12.3 °C 1014.4 hPa SSE 1.6 km/h 8 km/h 86 % 0 mm 0 W/m2
01:15 14.6 °C 12.3 °C 1014.4 hPa SSE 1.6 km/h 8 km/h 86 % 0 mm 0 W/m2
01:20 14.6 °C 12.3 °C 1014.4 hPa SSE 1.6 km/h 8 km/h 86 % 0 mm 0 W/m2
01:25 14.5 °C 12.2 °C 1014.4 hPa SSE 1.6 km/h 6.4 km/h 86 % 0 mm 0 W/m2
01:30 14.5 °C 12.3 °C 1014.4 hPa SSE 3.2 km/h 9.7 km/h 87 % 0 mm 0 W/m2
01:35 14.4 °C 12.3 °C 1014.1 hPa SSE 3.2 km/h 9.7 km/h 87 % 0 mm 0 W/m2
01:40 14.4 °C 12.3 °C 1014.1 hPa SSE 1.6 km/h 6.4 km/h 87 % 0 mm 0 W/m2
01:45 14.3 °C 12.2 °C 1014.1 hPa SSE 1.6 km/h 6.4 km/h 87 % 0 mm 0 W/m2
01:50 14.3 °C 12.2 °C 1014.1 hPa ESE 1.6 km/h 9.7 km/h 87 % 0 mm 0 W/m2
01:55 14.2 °C 12.1 °C 1014.1 hPa East 4.8 km/h 9.7 km/h 87 % 0 mm 0 W/m2
02:00 14.2 °C 12.1 °C 1014.4 hPa East 3.2 km/h 9.7 km/h 87 % 0 mm 0 W/m2
02:05 14.2 °C 12.2 °C 1014.4 hPa East 4.8 km/h 8 km/h 88 % 0 mm 0 W/m2
02:10 14.2 °C 12.2 °C 1014.4 hPa ESE 6.4 km/h 11.3 km/h 88 % 0 mm 0 W/m2
02:15 14.2 °C 12.2 °C 1014.4 hPa SE 6.4 km/h 11.3 km/h 88 % 0 mm 0 W/m2
02:20 14.1 °C 12.2 °C 1014.4 hPa SE 3.2 km/h 9.7 km/h 88 % 0 mm 0 W/m2
02:25 14.1 °C 12.2 °C 1014.1 hPa SE 1.6 km/h 8 km/h 88 % 0 mm 0 W/m2
02:30 14.1 °C 12.2 °C 1014.1 hPa SE 1.6 km/h 8 km/h 88 % 0 mm 0 W/m2
02:35 14.1 °C 12.2 °C 1014.1 hPa SSE 3.2 km/h 8 km/h 88 % 0 mm 0 W/m2
02:40 14.1 °C 12.2 °C 1014.1 hPa SSE 3.2 km/h 8 km/h 88 % 0 mm 0 W/m2
02:45 14.1 °C 12.2 °C 1014.4 hPa South 3.2 km/h 9.7 km/h 88 % 0 mm 0 W/m2
02:50 14.1 °C 12.2 °C 1014.1 hPa SSE 1.6 km/h 9.7 km/h 88 % 0 mm 0 W/m2
02:55 14.1 °C 12.2 °C 1014.4 hPa South 1.6 km/h 9.7 km/h 88 % 0 mm 0 W/m2
03:00 14.1 °C 12.2 °C 1014.4 hPa SSW 1.6 km/h 9.7 km/h 88 % 0 mm 0 W/m2
03:05 14.1 °C 12.2 °C 1014.1 hPa SSW 3.2 km/h 9.7 km/h 88 % 0 mm 0 W/m2
03:10 14.1 °C 12.2 °C 1014.1 hPa SSW 3.2 km/h 9.7 km/h 88 % 0 mm 0 W/m2
03:15 14.1 °C 12.2 °C 1013.8 hPa SSW 1.6 km/h 8 km/h 88 % 0 mm 0 W/m2
03:20 14.1 °C 12.2 °C 1013.8 hPa SSW 1.6 km/h 8 km/h 88 % 0 mm 0 W/m2
03:26 14.1 °C 12.2 °C 1013.8 hPa SSE 3.2 km/h 8 km/h 88 % 0 mm 0 W/m2
03:31 14 °C 12.1 °C 1013.8 hPa SE 3.2 km/h 9.7 km/h 88 % 0 mm 0 W/m2
03:36 14 °C 12.2 °C 1013.8 hPa SE 3.2 km/h 8 km/h 89 % 0 mm 0 W/m2
03:41 14 °C 12.2 °C 1014.1 hPa South 3.2 km/h 9.7 km/h 89 % 0 mm 0 W/m2
03:46 14 °C 12.2 °C 1014.4 hPa SSW 6.4 km/h 11.3 km/h 89 % 0 mm 0 W/m2
03:51 14 °C 12.2 °C 1014.1 hPa SSW 6.4 km/h 11.3 km/h 89 % 0 mm 0 W/m2
03:56 13.9 °C 12.1 °C 1014.1 hPa SSW 1.6 km/h 11.3 km/h 89 % 0 mm 0 W/m2
04:01 13.9 °C 12.1 °C 1014.1 hPa Calm   6.4 km/h 89 % 0 mm 0 W/m2
04:06 13.8 °C 12 °C 1014.1 hPa Calm     89 % 0 mm 0 W/m2
04:11 13.8 °C 12 °C 1013.8 hPa Calm     89 % 0 mm 0 W/m2
04:16 13.8 °C 12.2 °C 1013.8 hPa Calm   6.4 km/h 90 % 0 mm 0 W/m2
04:21 13.8 °C 12.2 °C 1013.4 hPa Calm   6.4 km/h 90 % 0 mm 0 W/m2
04:26 13.7 °C 12.1 °C 1013.4 hPa Calm   6.4 km/h 90 % 0 mm 0 W/m2
04:31 13.7 °C 12.1 °C 1013.4 hPa South 1.6 km/h 6.4 km/h 90 % 0 mm 0 W/m2
04:36 13.6 °C 12 °C 1013.4 hPa SSE 1.6 km/h 4.8 km/h 90 % 0 mm 0 W/m2
04:41 13.5 °C 12.1 °C 1013.4 hPa SE 1.6 km/h 6.4 km/h 91 % 0 mm 0 W/m2
04:46 13.4 °C 11.9 °C 1013.4 hPa SE 1.6 km/h 6.4 km/h 91 % 0 mm 0 W/m2
04:51 13.3 °C 11.9 °C 1013.4 hPa SE 1.6 km/h 6.4 km/h 91 % 0 mm 0 W/m2
04:56 13.3 °C 12 °C 1013.4 hPa SE 3.2 km/h 9.7 km/h 92 % 0 mm 0 W/m2
05:01 13.3 °C 12 °C 1013.4 hPa ESE 4.8 km/h 9.7 km/h 92 % 0 mm 0 W/m2
05:06 13.3 °C 12.2 °C 1013.8 hPa ESE 4.8 km/h 11.3 km/h 93 % 0 mm 0 W/m2
05:11 13.3 °C 12.2 °C 1013.8 hPa ESE 3.2 km/h 11.3 km/h 93 % 0 mm 0 W/m2
05:16 13.4 °C 12.3 °C 1013.8 hPa ESE 3.2 km/h 11.3 km/h 93 % 0 mm 0 W/m2
05:21 13.4 °C 12.3 °C 1013.8 hPa ESE 3.2 km/h 11.3 km/h 93 % 0 mm 0 W/m2
05:22 13.4 °C 12.3 °C 1013.8 hPa ESE 3.2 km/h 11.3 km/h 93 % 0 mm 0 W/m2
05:27 13.3 °C 12.2 °C 1013.8 hPa SE 1.6 km/h 8 km/h 93 % 0 mm 0 W/m2
05:32 13.3 °C 12.2 °C 1013.8 hPa SSE 1.6 km/h 9.7 km/h 93 % 0 mm 0 W/m2
05:37 13.3 °C 12.2 °C 1013.8 hPa South 4.8 km/h 11.3 km/h 93 % 0 mm 0 W/m2
05:42 13.3 °C 12.2 °C 1013.8 hPa SSW 4.8 km/h 11.3 km/h 93 % 0 mm 0 W/m2
05:47 13.4 °C 12.3 °C 1013.8 hPa SW 6.4 km/h 16.1 km/h 93 % 0 mm 0 W/m2
05:52 13.4 °C 12.3 °C 1013.8 hPa SW 8 km/h 16.1 km/h 93 % 0 mm 0 W/m2
05:57 13.6 °C 12.5 °C 1013.8 hPa SW 4.8 km/h 14.5 km/h 93 % 0 mm 0 W/m2
06:02 13.6 °C 12.5 °C 1013.8 hPa SW 4.8 km/h 9.7 km/h 93 % 0 mm 0 W/m2
06:07 13.7 °C 12.6 °C 1013.8 hPa SSW 3.2 km/h 9.7 km/h 93 % 0 mm 0 W/m2
06:12 13.8 °C 12.7 °C 1013.8 hPa SSW 4.8 km/h 12.9 km/h 93 % 0 mm 0 W/m2
06:17 13.8 °C 12.7 °C 1013.4 hPa SSW 8 km/h 14.5 km/h 93 % 0 mm 0 W/m2
06:22 13.8 °C 12.7 °C 1013.8 hPa SSW 8 km/h 17.7 km/h 93 % 0 mm 0 W/m2
06:27 13.8 °C 12.7 °C 1013.4 hPa South 8 km/h 17.7 km/h 93 % 0 mm 0 W/m2
06:32 13.9 °C 12.8 °C 1013.4 hPa South 4.8 km/h 12.9 km/h 93 % 0 mm 0 W/m2
06:37 13.8 °C 12.5 °C 1013.1 hPa South 1.6 km/h 8 km/h 92 % 0 mm 0 W/m2
06:42 13.8 °C 12.7 °C 1013.1 hPa East 1.6 km/h 8 km/h 93 % 0 mm 0 W/m2
06:47 13.8 °C 12.7 °C 1014.4 hPa SSE 4.8 km/h 24.1 km/h 93 % 0 mm 0 W/m2
06:52 13.9 °C 12.8 °C 1014.4 hPa South 9.7 km/h 24.1 km/h 93 % 0 mm 0 W/m2
06:57 14 °C 12.9 °C 1013.8 hPa SSW 11.3 km/h 19.3 km/h 93 % 0 mm 0 W/m2
07:02 14.1 °C 13 °C 1013.4 hPa South 8 km/h 16.1 km/h 93 % 0 mm 0 W/m2
07:07 14.1 °C 13 °C 1013.1 hPa South 4.8 km/h 16.1 km/h 93 % 0 mm 0 W/m2
07:12 14.1 °C 13 °C 1013.1 hPa South 3.2 km/h 16.1 km/h 93 % 0 mm 0 W/m2
07:17 14.1 °C 13 °C 1013.1 hPa SSE 1.6 km/h 8 km/h 93 % 0 mm 0 W/m2
07:22 14.1 °C 13 °C 1013.1 hPa Calm   4.8 km/h 93 % 0 mm 0 W/m2
07:27 14.1 °C 13 °C 1012.8 hPa SSE 1.6 km/h 4.8 km/h 93 % 0 mm 0 W/m2
07:32 14 °C 12.9 °C 1012.4 hPa SSE 3.2 km/h 8 km/h 93 % 0 mm 0 W/m2
07:37 13.9 °C 12.8 °C 1012.8 hPa SE 6.4 km/h 12.9 km/h 93 % 0 mm 0 W/m2
07:43 13.8 °C 12.7 °C 1012.8 hPa SE 8 km/h 12.9 km/h 93 % 0 mm 0 W/m2
07:47 13.8 °C 12.7 °C 1012.8 hPa ESE 6.4 km/h 12.9 km/h 93 % 0 mm 5 W/m2
07:53 13.7 °C 12.6 °C 1012.4 hPa ESE 6.4 km/h 11.3 km/h 93 % 0 mm 5 W/m2
07:58 13.8 °C 12.8 °C 1012.4 hPa ESE 6.4 km/h 11.3 km/h 94 % 0 mm 5 W/m2
08:03 13.8 °C 12.8 °C 1012.4 hPa SE 6.4 km/h 11.3 km/h 94 % 0 mm 5 W/m2
08:08 13.8 °C 12.8 °C 1012.4 hPa SE 4.8 km/h 11.3 km/h 94 % 0 mm 9 W/m2
08:13 13.9 °C 12.9 °C 1012.4 hPa SE 4.8 km/h 11.3 km/h 94 % 0 mm 12 W/m2
08:18 13.9 °C 13.1 °C 1012.4 hPa SE 4.8 km/h 11.3 km/h 95 % 0 mm 12 W/m2
08:23 14 °C 13.2 °C 1012.1 hPa SSE 6.4 km/h 11.3 km/h 95 % 0 mm 11 W/m2
08:28 14 °C 13.2 °C 1012.1 hPa SE 6.4 km/h 11.3 km/h 95 % 0 mm 9 W/m2
08:33 14.1 °C 13.3 °C 1011.7 hPa ESE 6.4 km/h 12.9 km/h 95 % 0 mm 9 W/m2
08:38 14.1 °C 13.3 °C 1011.7 hPa ESE 6.4 km/h 12.9 km/h 95 % 0 mm 7 W/m2
08:43 14.1 °C 13.3 °C 1011.7 hPa ESE 4.8 km/h 11.3 km/h 95 % 0 mm 7 W/m2
08:48 14.1 °C 13.3 °C 1011.7 hPa SE 6.4 km/h 11.3 km/h 95 % 0 mm 5 W/m2
08:53 14.1 °C 13.3 °C 1011.4 hPa SE 8 km/h 17.7 km/h 95 % 0 mm 5 W/m2
08:54 14.1 °C 13.3 °C 1011.4 hPa SE 8 km/h 17.7 km/h 95 % 0 mm 7 W/m2
08:59 14.1 °C 13.3 °C 1011.1 hPa SE 8 km/h 17.7 km/h 95 % 0 mm 12 W/m2
09:04 14.2 °C 13.4 °C 1011.1 hPa ESE 8 km/h 14.5 km/h 95 % 0 mm 16 W/m2
09:09 14.2 °C 13.4 °C 1011.1 hPa SE 9.7 km/h 16.1 km/h 95 % 0 mm 25 W/m2
09:14 14.2 °C 13.4 °C 1011.4 hPa SE 9.7 km/h 20.9 km/h 95 % 0 mm 25 W/m2
09:19 14.3 °C 13.7 °C 1011.4 hPa SE 11.3 km/h 20.9 km/h 96 % 0 mm 28 W/m2
09:24 14.3 °C 13.7 °C 1011.4 hPa SE 11.3 km/h 20.9 km/h 96 % 0 mm 35 W/m2
09:29 14.3 °C 13.7 °C 1011.1 hPa SE 12.9 km/h 25.7 km/h 96 % 0 mm 40 W/m2
09:34 14.4 °C 13.8 °C 1011.1 hPa SE 14.5 km/h 25.7 km/h 96 % 0 mm 35 W/m2
09:39 14.4 °C 13.8 °C 1011.1 hPa SE 14.5 km/h 25.7 km/h 96 % 0 mm 40 W/m2
09:44 14.4 °C 13.8 °C 1011.4 hPa SE 12.9 km/h 25.7 km/h 96 % 0 mm 37 W/m2
09:49 14.4 °C 13.8 °C 1011.4 hPa SE 11.3 km/h 20.9 km/h 96 % 0 mm 44 W/m2
09:54 14.5 °C 13.9 °C 1011.4 hPa SSE 11.3 km/h 20.9 km/h 96 % 0 mm 67 W/m2
09:59 14.6 °C 13.9 °C 1011.4 hPa SSE 11.3 km/h 20.9 km/h 96 % 0 mm 53 W/m2
10:04 14.7 °C 14.1 °C 1011.4 hPa SSE 11.3 km/h 19.3 km/h 96 % 0 mm 47 W/m2
10:14 14.8 °C 14.2 °C 1010.7 hPa SE 12.9 km/h 19.3 km/h 96 % 0 mm 84 W/m2
10:16 14.8 °C 14.2 °C 1010.7 hPa SE 12.9 km/h 25.7 km/h 96 % 0 mm 91 W/m2
10:21 14.8 °C 14.2 °C 1010.7 hPa SE 14.5 km/h 25.7 km/h 96 % 0 mm 130 W/m2
10:26 14.9 °C 14.3 °C 1010.7 hPa SE 14.5 km/h 25.7 km/h 96 % 0 mm 241 W/m2
10:31 15.1 °C 14.4 °C 1010.4 hPa SE 14.5 km/h 24.1 km/h 96 % 0 mm 301 W/m2
10:36 15.3 °C 14.7 °C 1010.4 hPa SE 14.5 km/h 20.9 km/h 96 % 0 mm 244 W/m2
10:41 15.5 °C 14.9 °C 1010.4 hPa SE 12.9 km/h 20.9 km/h 96 % 0 mm 141 W/m2
10:46 15.6 °C 14.8 °C 1010 hPa SE 14.5 km/h 32.2 km/h 95 % 0 mm 156 W/m2
10:52 15.6 °C 14.8 °C 1010 hPa SE 16.1 km/h 32.2 km/h 95 % 0 mm 179 W/m2
10:57 15.6 °C 14.6 °C 1010 hPa SE 16.1 km/h 25.7 km/h 94 % 0 mm 185 W/m2
11:02 15.7 °C 14.7 °C 1010 hPa SSE 14.5 km/h 24.1 km/h 94 % 0 mm 199 W/m2
11:07 15.7 °C 14.7 °C 1010 hPa SE 16.1 km/h 25.7 km/h 94 % 0 mm 207 W/m2
11:12 15.8 °C 14.7 °C 1010 hPa SE 16.1 km/h 25.7 km/h 93 % 0 mm 207 W/m2
11:17 15.9 °C 14.8 °C 1010 hPa SE 14.5 km/h 24.1 km/h 93 % 0 mm 179 W/m2
11:22 16.1 °C 14.9 °C 1010 hPa SSE 12.9 km/h 24.1 km/h 93 % 0 mm 146 W/m2
11:27 16.2 °C 14.9 °C 1009.7 hPa SSE 12.9 km/h 24.1 km/h 92 % 0 mm 105 W/m2
11:32 16.3 °C 15 °C 1009.7 hPa SSE 14.5 km/h 24.1 km/h 92 % 0 mm 88 W/m2
11:37 16.3 °C 15 °C 1009.7 hPa SSE 14.5 km/h 22.5 km/h 92 % 0 mm 90 W/m2
11:42 16.4 °C 15.1 °C 1009.4 hPa SSE 14.5 km/h 22.5 km/h 92 % 0 mm 102 W/m2
11:47 16.4 °C 15.1 °C 1009.4 hPa SSE 12.9 km/h 20.9 km/h 92 % 0 mm 123 W/m2
11:52 16.6 °C 15.1 °C 1009.7 hPa SSE 12.9 km/h 24.1 km/h 91 % 0 mm 127 W/m2
11:57 16.6 °C 15.1 °C 1009.4 hPa SSE 12.9 km/h 24.1 km/h 91 % 0 mm 116 W/m2
12:02 16.7 °C 15.2 °C 1009.4 hPa South 11.3 km/h 20.9 km/h 91 % 0 mm 127 W/m2
12:07 16.7 °C 15.2 °C 1009.4 hPa SSE 8 km/h 17.7 km/h 91 % 0 mm 134 W/m2
12:12 16.8 °C 15.3 °C 1009 hPa SSE 4.8 km/h 12.9 km/h 91 % 0 mm 139 W/m2
12:17 16.9 °C 15.4 °C 1009 hPa South 4.8 km/h 12.9 km/h 91 % 0 mm 171 W/m2
12:22 17.1 °C 15.6 °C 1009 hPa SSE 6.4 km/h 12.9 km/h 91 % 0 mm 172 W/m2
12:27 17.2 °C 15.6 °C 1008.7 hPa SSE 8 km/h 16.1 km/h 90 % 0 mm 156 W/m2
12:32 17.4 °C 15.7 °C 1008.4 hPa SSE 8 km/h 17.7 km/h 90 % 0 mm 128 W/m2
12:39 17.6 °C 15.9 °C 1008.4 hPa SSE 11.3 km/h 16.1 km/h 90 % 0 mm 109 W/m2
12:44 17.7 °C 15.9 °C 1008 hPa SSE 14.5 km/h 24.1 km/h 89 % 0 mm 93 W/m2
12:49 17.8 °C 15.9 °C 1008 hPa SSE 14.5 km/h 24.1 km/h 89 % 0 mm 74 W/m2
12:54 17.9 °C 15.9 °C 1008 hPa SSE 12.9 km/h 24.1 km/h 88 % 0 mm 77 W/m2
12:59 18 °C 16 °C 1008 hPa SSE 14.5 km/h 22.5 km/h 88 % 0 mm 77 W/m2
13:04 18.1 °C 16.1 °C 1007.7 hPa SSE 14.5 km/h 22.5 km/h 88 % 0 mm 102 W/m2
13:09 18.2 °C 16 °C 1007.7 hPa SSE 12.9 km/h 20.9 km/h 87 % 0 mm 97 W/m2
13:14 18.3 °C 16.1 °C 1007.7 hPa SSE 12.9 km/h 24.1 km/h 87 % 0 mm 72 W/m2
13:19 18.4 °C 16 °C 1008 hPa South 14.5 km/h 30.6 km/h 86 % 0 mm 51 W/m2
13:24 18.6 °C 16 °C 1007.7 hPa South 16.1 km/h 32.2 km/h 85 % 0 mm 54 W/m2
13:29 18.6 °C 16 °C 1007.7 hPa South 16.1 km/h 32.2 km/h 85 % 0 mm 54 W/m2
13:34 18.7 °C 15.9 °C 1007.7 hPa South 17.7 km/h 35.4 km/h 84 % 0 mm 65 W/m2
13:39 18.8 °C 15.8 °C 1007.7 hPa South 20.9 km/h 38.6 km/h 83 % 0 mm 76 W/m2
13:44 18.9 °C 15.9 °C 1007.7 hPa South 19.3 km/h 38.6 km/h 83 % 0 mm 60 W/m2
13:49 19 °C 15.8 °C 1007.7 hPa South 22.5 km/h 57.9 km/h 82 % 0 mm 74 W/m2
13:54 19.1 °C 15.8 °C 1007.3 hPa South 25.7 km/h 57.9 km/h 81 % 0 mm 77 W/m2
13:59 19.1 °C 15.6 °C 1007.7 hPa South 25.7 km/h 48.3 km/h 80 % 0 mm 67 W/m2
14:04 19.1 °C 15.4 °C 1007.3 hPa South 25.7 km/h 46.7 km/h 79 % 0 mm 63 W/m2
14:09 19.2 °C 15.4 °C 1007.3 hPa South 24.1 km/h 41.8 km/h 79 % 0 mm 74 W/m2
14:14 19.1 °C 15.4 °C 1007.3 hPa South 22.5 km/h 41.8 km/h 79 % 0 mm 88 W/m2
14:19 19.1 °C 15.4 °C 1007.3 hPa South 22.5 km/h 41.8 km/h 79 % 0 mm 109 W/m2
14:24 19.1 °C 15.2 °C 1007 hPa SSW 24.1 km/h 43.5 km/h 78 % 0 mm 123 W/m2
14:29 19.1 °C 15.2 °C 1007 hPa SSW 22.5 km/h 43.5 km/h 78 % 0 mm 125 W/m2
14:34 19.1 °C 14.9 °C 1007 hPa South 24.1 km/h 41.8 km/h 77 % 0 mm 139 W/m2
14:39 19.1 °C 14.9 °C 1006.7 hPa South 24.1 km/h 41.8 km/h 77 % 0 mm 197 W/m2
14:44 19.2 °C 15.1 °C 1006.3 hPa South 24.1 km/h 45.1 km/h 77 % 0 mm 258 W/m2
14:49 19.3 °C 14.9 °C 1006.3 hPa South 24.1 km/h 45.1 km/h 76 % 0 mm 264 W/m2
14:54 19.3 °C 14.8 °C 1006.3 hPa South 22.5 km/h 40.2 km/h 75 % 0 mm 167 W/m2
14:59 19.3 °C 14.8 °C 1006.3 hPa South 24.1 km/h 43.5 km/h 75 % 0 mm 345 W/m2
15:04 19.4 °C 14.7 °C 1006.3 hPa SSW 24.1 km/h 49.9 km/h 74 % 0 mm 278 W/m2
15:09 19.6 °C 14.4 °C 1006.3 hPa SSW 24.1 km/h 49.9 km/h 72 % 0 mm 348 W/m2
15:14 19.7 °C 14.3 °C 1006.3 hPa SSW 25.7 km/h 49.9 km/h 71 % 0 mm 406 W/m2
15:19 19.8 °C 14.4 °C 1006.3 hPa SSW 27.4 km/h 49.9 km/h 71 % 0 mm 343 W/m2
15:24 19.9 °C 14.5 °C 1006 hPa South 22.5 km/h 40.2 km/h 71 % 0 mm 355 W/m2
15:29 19.8 °C 14.4 °C 1006 hPa South 22.5 km/h 40.2 km/h 71 % 0 mm 304 W/m2
15:34 19.8 °C 14.2 °C 1006 hPa South 25.7 km/h 45.1 km/h 70 % 0 mm 292 W/m2
15:39 19.7 °C 13.4 °C 1006 hPa South 29 km/h 48.3 km/h 67 % 0 mm 290 W/m2
15:44 19.7 °C 13.2 °C 1006 hPa South 29 km/h 54.7 km/h 66 % 0 mm 269 W/m2
15:49 19.6 °C 13.1 °C 1005.6 hPa South 30.6 km/h 54.7 km/h 66 % 0 mm 248 W/m2
15:54 19.5 °C 12.7 °C 1006 hPa SSW 33.8 km/h 54.7 km/h 65 % 0 mm 178 W/m2
15:59 19.4 °C 12.9 °C 1006 hPa SSW 32.2 km/h 54.7 km/h 66 % 0 mm 237 W/m2
16:05 19.3 °C 12.6 °C 1005.6 hPa SSW 29 km/h 51.5 km/h 65 % 0 mm 221 W/m2
16:10 19.3 °C 12.6 °C 1006 hPa SSW 27.4 km/h 54.7 km/h 65 % 0 mm 221 W/m2
16:15 19.2 °C 12.4 °C 1006 hPa SSW 27.4 km/h 54.7 km/h 65 % 0 mm 209 W/m2
16:20 19.1 °C 12.1 °C 1006 hPa SSW 29 km/h 48.3 km/h 64 % 0 mm 199 W/m2
16:25 19.1 °C 11.9 °C 1006 hPa SSW 29 km/h 49.9 km/h 63 % 0 mm 193 W/m2
16:30 19.1 °C 11.9 °C 1006 hPa SSW 29 km/h 49.9 km/h 63 % 0 mm 185 W/m2
16:35 19 °C 11.8 °C 1006 hPa SSW 25.7 km/h 46.7 km/h 63 % 0 mm 91 W/m2
16:40 19 °C 11.8 °C 1005.6 hPa SSW 24.1 km/h 41.8 km/h 63 % 0 mm 84 W/m2
16:45 18.9 °C 10.7 °C 1006 hPa SSW 25.7 km/h 49.9 km/h 59 % 0 mm 58 W/m2
16:50 18.8 °C 10.1 °C 1005.6 hPa SSW 32.2 km/h 57.9 km/h 57 % 0 mm 56 W/m2
16:55 18.7 °C 10 °C 1006 hPa SSW 32.2 km/h 57.9 km/h 57 % 0 mm 54 W/m2
17:00 18.7 °C 9.7 °C 1006 hPa SSW 32.2 km/h 61.2 km/h 56 % 0 mm 49 W/m2
17:05 18.6 °C 8.8 °C 1005.6 hPa SSW 35.4 km/h 64.4 km/h 53 % 0 mm 47 W/m2
17:10 18.4 °C 8.4 °C 1005.6 hPa SSW 35.4 km/h 64.4 km/h 52 % 0 mm 44 W/m2
17:15 18.2 °C 8.2 °C 1006 hPa SSW 33.8 km/h 64.4 km/h 52 % 0 mm 37 W/m2
17:20 17.9 °C 7.9 °C 1005.6 hPa SSW 33.8 km/h 64.4 km/h 52 % 0 mm 35 W/m2
17:25 17.7 °C 8.3 °C 1006 hPa SSW 35.4 km/h 67.6 km/h 54 % 0 mm 32 W/m2
17:30 17.6 °C 8.2 °C 1006 hPa SSW 37 km/h 67.6 km/h 54 % 0 mm 28 W/m2
17:35 17.4 °C 8.3 °C 1006 hPa SSW 37 km/h 61.2 km/h 55 % 0 mm 21 W/m2
17:40 17.3 °C 8.7 °C 1005.6 hPa SSW 30.6 km/h 59.5 km/h 57 % 0 mm 18 W/m2
17:45 17.1 °C 8.5 °C 1005.6 hPa SSW 27.4 km/h 54.7 km/h 57 % 0 mm 14 W/m2
17:50 17 °C 8.4 °C 1005.6 hPa SSW 29 km/h 54.7 km/h 57 % 0 mm 12 W/m2
17:55 16.9 °C 8.8 °C 1005.6 hPa SSW 30.6 km/h 54.7 km/h 59 % 0 mm 9 W/m2
18:00 16.8 °C 8.7 °C 1005.6 hPa SSW 32.2 km/h 54.7 km/h 59 % 0 mm 7 W/m2
18:05 16.8 °C 9 °C 1006 hPa SSW 30.6 km/h 54.7 km/h 60 % 0 mm 5 W/m2
18:10 16.7 °C 8.7 °C 1006 hPa SSW 30.6 km/h 53.1 km/h 59 % 0 mm 0 W/m2
18:15 16.6 °C 8.6 °C 1006.3 hPa SSW 30.6 km/h 51.5 km/h 59 % 0 mm 0 W/m2
18:20 16.5 °C 7.9 °C 1006.3 hPa SW 32.2 km/h 67.6 km/h 57 % 0 mm 0 W/m2
18:26 16.5 °C 7.9 °C 1006.7 hPa SW 33.8 km/h 67.6 km/h 57 % 0 mm 0 W/m2
18:31 16.4 °C 8.1 °C 1006.7 hPa SSW 32.2 km/h 53.1 km/h 58 % 0 mm 0 W/m2
18:36 16.4 °C 8.1 °C 1006.3 hPa SSW 33.8 km/h 57.9 km/h 58 % 0 mm 0 W/m2
18:41 16.3 °C 8.3 °C 1006.7 hPa SSW 32.2 km/h 57.9 km/h 59 % 0 mm 0 W/m2
18:46 16.3 °C 8 °C 1006.7 hPa SSW 32.2 km/h 54.7 km/h 58 % 0 mm 0 W/m2
18:51 16.3 °C 8.3 °C 1006.7 hPa SSW 33.8 km/h 54.7 km/h 59 % 0 mm 0 W/m2
18:56 16.2 °C 8.2 °C 1006.7 hPa SSW 27.4 km/h 49.9 km/h 59 % 0 mm 0 W/m2
19:01 16.1 °C 8.3 °C 1006.3 hPa SSW 25.7 km/h 51.5 km/h 60 % 0 mm 0 W/m2
19:06 16 °C 8.5 °C 1006.7 hPa SW 25.7 km/h 51.5 km/h 61 % 0 mm 0 W/m2
19:11 15.9 °C 8.4 °C 1006.7 hPa SSW 24.1 km/h 51.5 km/h 61 % 0 mm 0 W/m2
19:16 15.8 °C 8.3 °C 1007 hPa SW 24.1 km/h 51.5 km/h 61 % 0 mm 0 W/m2
19:21 15.8 °C 8.1 °C 1006.7 hPa SW 25.7 km/h 46.7 km/h 60 % 0 mm 0 W/m2
19:26 15.8 °C 8.3 °C 1007 hPa SW 25.7 km/h 54.7 km/h 61 % 0 mm 0 W/m2
19:31 15.7 °C 8.2 °C 1006.7 hPa SSW 19.3 km/h 54.7 km/h 61 % 0 mm 0 W/m2
19:36 15.6 °C 8.1 °C 1007 hPa SSW 19.3 km/h 46.7 km/h 61 % 0 mm 0 W/m2
19:41 15.6 °C 8.3 °C 1007 hPa SSW 24.1 km/h 51.5 km/h 62 % 0 mm 0 W/m2
19:46 15.6 °C 8.1 °C 1007.3 hPa SW 24.1 km/h 51.5 km/h 61 % 0 mm 0 W/m2
19:51 15.6 °C 8.1 °C 1007 hPa SW 24.1 km/h 41.8 km/h 61 % 0 mm 0 W/m2
19:56 15.7 °C 7.9 °C 1007.3 hPa SW 27.4 km/h 62.8 km/h 60 % 0 mm 0 W/m2
20:01 15.6 °C 7.8 °C 1007.7 hPa SW 29 km/h 62.8 km/h 60 % 0 mm 0 W/m2
20:06 15.6 °C 7.6 °C 1008 hPa SW 33.8 km/h 62.8 km/h 59 % 0 mm 0 W/m2
20:11 15.6 °C 7.8 °C 1007.7 hPa SW 38.6 km/h 64.4 km/h 60 % 0 mm 0 W/m2
20:16 15.5 °C 7.8 °C 1007.7 hPa SW 35.4 km/h 64.4 km/h 60 % 0 mm 0 W/m2
20:20 15.4 °C 7.7 °C 1007.3 hPa SW 32.2 km/h 61.2 km/h 60 % 0 mm 0 W/m2
20:25 15.3 °C 7.8 °C 1007.3 hPa SW 29 km/h 48.3 km/h 61 % 0 mm 0 W/m2
20:30 15.3 °C 7.8 °C 1007.3 hPa SW 29 km/h 48.3 km/h 61 % 0 mm 0 W/m2
20:35 15.2 °C 7.9 °C 1007.3 hPa SW 30.6 km/h 49.9 km/h 62 % 0 mm 0 W/m2
20:40 15.2 °C 7.9 °C 1007 hPa SW 32.2 km/h 57.9 km/h 62 % 0 mm 0 W/m2
20:45 15.1 °C 8.1 °C 1007.7 hPa SSW 35.4 km/h 70.8 km/h 63 % 0 mm 0 W/m2
20:50 15.1 °C 8.1 °C 1007 hPa SW 38.6 km/h 70.8 km/h 63 % 0 mm 0 W/m2
20:52 15 °C 8 °C 1007 hPa SW 40.2 km/h 70.8 km/h 63 % 0 mm 0 W/m2
20:57 14.9 °C 7.9 °C 1007 hPa SW 38.6 km/h 62.8 km/h 63 % 0 mm 0 W/m2
21:02 14.9 °C 7.9 °C 1007 hPa SW 35.4 km/h 56.3 km/h 63 % 0 mm 0 W/m2
21:07 14.8 °C 7.8 °C 1007 hPa SW 33.8 km/h 67.6 km/h 63 % 0 mm 0 W/m2
21:12 14.8 °C 7.8 °C 1007 hPa SW 38.6 km/h 70.8 km/h 63 % 0 mm 0 W/m2
21:17 14.8 °C 8.1 °C 1007 hPa SW 40.2 km/h 70.8 km/h 64 % 0 mm 0 W/m2
21:23 14.7 °C 7.9 °C 1007 hPa SW 38.6 km/h 62.8 km/h 64 % 0 mm 0 W/m2
21:28 14.7 °C 7.9 °C 1007 hPa SW 35.4 km/h 64.4 km/h 64 % 0 mm 0 W/m2
21:33 14.7 °C 7.9 °C 1007 hPa SW 32.2 km/h 64.4 km/h 64 % 0 mm 0 W/m2
21:38 14.7 °C 7.9 °C 1007 hPa SW 33.8 km/h 57.9 km/h 64 % 0 mm 0 W/m2
21:43 14.6 °C 7.9 °C 1007 hPa SW 33.8 km/h 57.9 km/h 64 % 0 mm 0 W/m2
21:48 14.6 °C 7.6 °C 1007 hPa SW 35.4 km/h 59.5 km/h 63 % 0 mm 0 W/m2
21:53 14.6 °C 7.9 °C 1007 hPa SW 35.4 km/h 61.2 km/h 64 % 0 mm 0 W/m2
21:58 14.5 °C 7.8 °C 1007.3 hPa SW 32.2 km/h 61.2 km/h 64 % 0 mm 0 W/m2
22:03 14.4 °C 7.9 °C 1007.3 hPa SW 32.2 km/h 56.3 km/h 65 % 0 mm 0 W/m2
22:08 14.4 °C 8.1 °C 1007.3 hPa SW 35.4 km/h 64.4 km/h 66 % 0 mm 0 W/m2
22:13 14.4 °C 8.1 °C 1007.7 hPa SW 33.8 km/h 64.4 km/h 66 % 0 mm 0 W/m2
22:18 14.3 °C 8.3 °C 1007.7 hPa SW 27.4 km/h 51.5 km/h 67 % 0 mm 0 W/m2
22:23 14.3 °C 8.1 °C 1007.7 hPa SW 27.4 km/h 54.7 km/h 66 % 0 mm 0 W/m2
22:28 14.3 °C 7.8 °C 1007.3 hPa SW 32.2 km/h 54.7 km/h 65 % 0 mm 0 W/m2
22:33 14.4 °C 7.4 °C 1007 hPa SW 37 km/h 74 km/h 63 % 0 mm 0 W/m2
22:38 14.4 °C 7.7 °C 1007.7 hPa SW 41.8 km/h 74 km/h 64 % 0 mm 0 W/m2
22:43 14.4 °C 7.4 °C 1007.7 hPa SW 45.1 km/h 78.9 km/h 63 % 0 mm 0 W/m2
22:48 14.4 °C 7.4 °C 1007.7 hPa SW 43.5 km/h 78.9 km/h 63 % 0 mm 0 W/m2
22:53 14.3 °C 7.3 °C 1008 hPa SW 33.8 km/h 67.6 km/h 63 % 0 mm 0 W/m2
22:58 14.4 °C 7.4 °C 1008 hPa SW 33.8 km/h 72.4 km/h 63 % 0 mm 0 W/m2
23:03 14.4 °C 7.2 °C 1008 hPa WSW 40.2 km/h 72.4 km/h 62 % 0 mm 0 W/m2
23:08 14.4 °C 7.4 °C 1008.4 hPa WSW 40.2 km/h 74 km/h 63 % 0 mm 0 W/m2
23:13 14.3 °C 7.6 °C 1008 hPa SW 38.6 km/h 74 km/h 64 % 0 mm 0 W/m2
23:18 14.2 °C 7.7 °C 1008 hPa SW 33.8 km/h 62.8 km/h 65 % 0 mm 0 W/m2
23:23 14.2 °C 7.7 °C 1008 hPa SW 32.2 km/h 62.8 km/h 65 % 0 mm 0 W/m2
23:28 14.2 °C 7.5 °C 1007.7 hPa SW 37 km/h 74 km/h 64 % 0 mm 0 W/m2
23:33 14.3 °C 7.6 °C 1007.7 hPa SW 38.6 km/h 74 km/h 64 % 0 mm 0 W/m2
23:38 14.2 °C 7.7 °C 1008 hPa SW 33.8 km/h 69.2 km/h 65 % 0 mm 0 W/m2
23:43 14.2 °C 7.7 °C 1007.7 hPa SW 35.4 km/h 70.8 km/h 65 % 0 mm 0 W/m2
23:48 14.2 °C 7.7 °C 1008 hPa SW 37 km/h 70.8 km/h 65 % 0 mm 0 W/m2
23:53 14.2 °C 7.7 °C 1008 hPa SW 33.8 km/h 56.3 km/h 65 % 0 mm 0 W/m2
23:58 14.1 °C 7.6 °C 1008 hPa SW 29 km/h 49.9 km/h 65 % 0 mm 0 W/m2
Delerius-Weather
Compliments of Weather Underground - 2.25 mb

Data updates at regular intervals.